Time;durP1;ratioP1;P1;durP2;ratioP2;P2;SDS_P1;SDS_P2;PMS_P1;PMS_P2;Temp;Humidity;BMP_temperature;BMP_pressure;BME280_temperature;BME280_humidity;BME280_pressure;Samples;Min_cycle;Max_cycle;Signal;HPM_P1;HPM_P2
2023/05/25 00:00:09;;;;;;;5.15;3.17;;;16.90;99.90;;;;;;5094228;28;20021;-62
2023/05/25 00:02:35;;;;;;;5.90;3.22;;;16.90;99.90;;;;;;5094558;28;20019;-62
2023/05/25 00:05:01;;;;;;;7.45;3.47;;;16.90;99.90;;;;;;5094084;28;20024;-62
2023/05/25 00:07:27;;;;;;;8.35;3.38;;;16.90;99.90;;;;;;5094081;28;20099;-62
2023/05/25 00:09:53;;;;;;;7.47;3.30;;;16.90;99.90;;;;;;5093922;28;20544;-62
2023/05/25 00:12:19;;;;;;;6.75;3.45;;;16.90;99.90;;;;;;5093847;28;20036;-62
2023/05/25 00:14:45;;;;;;;7.63;3.42;;;16.80;99.90;;;;;;5094116;28;20087;-62
2023/05/25 00:17:11;;;;;;;5.90;3.10;;;16.80;99.90;;;;;;5094017;28;20398;-62
2023/05/25 00:19:41;;;;;;;7.95;3.50;;;16.70;99.90;;;;;;5093934;28;20039;-62
2023/05/25 00:22:07;;;;;;;7.97;3.55;;;16.80;99.90;;;;;;5093696;28;20028;-62
2023/05/25 00:24:33;;;;;;;6.70;3.28;;;16.70;99.90;;;;;;5093704;28;20070;-62
2023/05/25 00:26:59;;;;;;;6.97;3.20;;;16.70;99.90;;;;;;5094022;28;20028;-62
2023/05/25 00:29:25;;;;;;;7.63;3.28;;;16.60;99.90;;;;;;5093311;28;20039;-62
2023/05/25 00:31:51;;;;;;;8.38;3.95;;;16.60;99.90;;;;;;5093199;28;20036;-62
2023/05/25 00:34:17;;;;;;;8.43;3.58;;;16.60;99.90;;;;;;5093363;28;20100;-62
2023/05/25 00:36:43;;;;;;;5.47;3.10;;;16.60;99.90;;;;;;5093519;28;20127;-62
2023/05/25 00:39:08;;;;;;;8.65;3.55;;;16.50;99.90;;;;;;5093382;28;20046;-62
2023/05/25 00:41:40;;;;;;;7.32;3.30;;;16.50;99.90;;;;;;5093476;28;20016;-62
2023/05/25 00:44:06;;;;;;;6.82;3.30;;;16.50;99.90;;;;;;5092511;28;20024;-62
2023/05/25 00:46:33;;;;;;;8.00;3.40;;;16.40;99.90;;;;;;5093012;28;20115;-62
2023/05/25 00:48:59;;;;;;;10.02;3.72;;;16.40;99.90;;;;;;5093229;28;20024;-62
2023/05/25 00:51:26;;;;;;;7.50;3.25;;;16.40;99.90;;;;;;5093683;28;20498;-63
2023/05/25 00:53:52;;;;;;;6.82;3.10;;;16.30;99.90;;;;;;5093259;28;20031;-62
2023/05/25 00:56:22;;;;;;;8.38;3.33;;;16.20;99.90;;;;;;5093005;28;20028;-62
2023/05/25 00:58:55;;;;;;;6.93;3.28;;;16.30;99.90;;;;;;5092948;28;20146;-62
2023/05/25 01:01:22;;;;;;;6.90;3.57;;;16.20;99.90;;;;;;5092879;28;20027;-62
2023/05/25 01:03:53;;;;;;;8.93;3.20;;;16.30;99.90;;;;;;5092886;28;20059;-62
2023/05/25 01:06:21;;;;;;;7.88;3.22;;;16.20;99.90;;;;;;5093286;28;20394;-62
2023/05/25 01:08:53;;;;;;;7.78;3.67;;;16.20;99.90;;;;;;5092766;28;20035;-62
2023/05/25 01:11:30;;;;;;;8.85;3.50;;;16.10;99.90;;;;;;5092872;28;20486;-62
2023/05/25 01:13:57;;;;;;;6.25;3.65;;;16.00;99.90;;;;;;5092694;28;20112;-62
2023/05/25 01:16:27;;;;;;;7.90;3.45;;;15.90;99.90;;;;;;5092373;28;20517;-62
2023/05/25 01:18:53;;;;;;;6.82;3.30;;;15.90;99.90;;;;;;5092942;28;20179;-62
2023/05/25 01:21:40;;;;;;;6.05;3.20;;;15.80;99.90;;;;;;5092698;28;20501;-62
2023/05/25 01:24:30;;;;;;;7.65;3.15;;;15.70;99.90;;;;;;5092170;28;20068;-62
2023/05/25 01:27:05;;;;;;;10.48;3.70;;;15.70;99.90;;;;;;5092556;28;20535;-62
2023/05/25 01:29:33;;;;;;;6.95;3.22;;;15.70;99.90;;;;;;5092815;28;20028;-62
2023/05/25 01:31:59;;;;;;;7.85;3.30;;;15.70;99.90;;;;;;5091816;28;20104;-61
2023/05/25 01:34:25;;;;;;;8.60;3.35;;;15.70;99.90;;;;;;5092325;28;20115;-62
2023/05/25 01:36:51;;;;;;;6.18;3.00;;;15.70;99.90;;;;;;5092235;28;20050;-62
2023/05/25 01:39:21;;;;;;;7.47;3.00;;;15.70;99.90;;;;;;5092270;28;20538;-62
2023/05/25 01:41:47;;;;;;;6.97;3.35;;;15.70;99.90;;;;;;5092270;28;20024;-62
2023/05/25 01:44:13;;;;;;;7.03;3.20;;;15.60;99.90;;;;;;5091855;28;20390;-62
2023/05/25 01:46:40;;;;;;;7.85;3.03;;;15.60;99.90;;;;;;5092133;28;20103;-62
2023/05/25 01:49:20;;;;;;;6.20;2.92;;;15.50;99.90;;;;;;5092515;28;20032;-62
2023/05/25 01:52:14;;;;;;;9.02;3.35;;;15.50;99.90;;;;;;5092036;28;20082;-62
2023/05/25 01:54:47;;;;;;;5.43;2.92;;;15.50;99.90;;;;;;5091446;28;20104;-62
2023/05/25 01:57:16;;;;;;;6.70;3.15;;;15.50;99.90;;;;;;5091924;28;20433;-62
2023/05/25 01:59:45;;;;;;;6.90;3.17;;;15.40;99.90;;;;;;5091501;28;20110;-62
2023/05/25 02:02:16;;;;;;;8.02;3.38;;;15.40;99.90;;;;;;5091789;28;20016;-62
2023/05/25 02:04:43;;;;;;;6.95;2.97;;;15.40;99.90;;;;;;5091877;28;20108;-62
2023/05/25 02:07:09;;;;;;;7.30;2.95;;;15.30;99.90;;;;;;5092155;28;20502;-62
2023/05/25 02:09:35;;;;;;;7.38;2.97;;;15.30;99.90;;;;;;5091680;28;20028;-62
2023/05/25 02:12:01;;;;;;;7.55;2.88;;;15.30;99.90;;;;;;5091515;28;20097;-62
2023/05/25 02:14:27;;;;;;;5.40;2.60;;;15.30;99.90;;;;;;5091351;28;20078;-62
2023/05/25 02:16:52;;;;;;;7.57;2.90;;;15.30;99.90;;;;;;5091527;28;20035;-62
2023/05/25 02:19:18;;;;;;;5.60;2.75;;;15.30;99.90;;;;;;5091654;28;20031;-62
2023/05/25 02:21:44;;;;;;;9.25;3.20;;;15.30;99.90;;;;;;5091867;28;20077;-62
2023/05/25 02:24:10;;;;;;;6.93;2.70;;;15.20;99.90;;;;;;5091418;28;20504;-62
2023/05/25 02:26:37;;;;;;;6.75;3.15;;;15.20;99.90;;;;;;5091527;28;20107;-62
2023/05/25 02:29:03;;;;;;;10.73;2.80;;;15.20;99.90;;;;;;5091141;28;20020;-62
2023/05/25 02:31:29;;;;;;;5.43;3.03;;;15.20;99.90;;;;;;5091164;28;20601;-62
2023/05/25 02:33:55;;;;;;;6.25;2.80;;;15.20;99.90;;;;;;5091411;28;20091;-62
2023/05/25 02:36:21;;;;;;;5.93;2.72;;;15.10;99.90;;;;;;5091233;28;20097;-62
2023/05/25 02:38:48;;;;;;;5.78;2.50;;;15.10;99.90;;;;;;5091331;28;20048;-62
2023/05/25 02:41:15;;;;;;;6.40;3.00;;;15.10;99.90;;;;;;5091498;28;20056;-62
2023/05/25 02:43:40;;;;;;;6.90;3.10;;;15.10;99.90;;;;;;5091204;28;20036;-62
2023/05/25 02:46:06;;;;;;;7.13;2.55;;;15.10;99.90;;;;;;5091229;28;20030;-62
2023/05/25 02:48:32;;;;;;;6.47;2.70;;;15.10;99.90;;;;;;5091099;28;20453;-62
2023/05/25 02:50:57;;;;;;;6.40;2.78;;;15.00;99.90;;;;;;5091083;28;20440;-62
2023/05/25 02:53:23;;;;;;;7.18;2.70;;;15.00;99.90;;;;;;5091234;28;20024;-62
2023/05/25 02:55:49;;;;;;;6.00;2.83;;;15.00;99.90;;;;;;5091372;28;20024;-62
2023/05/25 02:58:15;;;;;;;5.20;2.63;;;15.00;99.90;;;;;;5089436;28;20028;-62
2023/05/25 03:00:41;;;;;;;6.30;2.72;;;14.90;99.90;;;;;;5091159;28;20034;-62
2023/05/25 03:03:07;;;;;;;7.63;3.10;;;15.00;99.90;;;;;;5091073;28;20043;-62
2023/05/25 03:05:34;;;;;;;6.07;2.80;;;15.00;99.90;;;;;;5091742;28;20055;-62
2023/05/25 03:08:00;;;;;;;5.72;2.50;;;14.90;99.90;;;;;;5095203;28;20023;-62
2023/05/25 03:10:26;;;;;;;5.10;2.75;;;14.90;99.90;;;;;;5095017;28;20096;-62
2023/05/25 03:12:51;;;;;;;4.82;2.47;;;14.90;99.90;;;;;;5095037;28;20494;-62
2023/05/25 03:15:17;;;;;;;5.82;2.65;;;14.90;99.90;;;;;;5094720;28;20409;-62
2023/05/25 03:17:43;;;;;;;4.82;2.58;;;14.90;99.90;;;;;;5095402;28;20494;-62
2023/05/25 03:20:09;;;;;;;4.65;2.38;;;14.90;99.90;;;;;;5094925;28;20474;-62
2023/05/25 03:22:35;;;;;;;5.57;2.60;;;14.90;99.90;;;;;;5095058;28;20020;-61
2023/05/25 03:25:01;;;;;;;4.22;2.40;;;14.90;99.90;;;;;;5094869;28;20372;-62
2023/05/25 03:27:27;;;;;;;4.53;2.63;;;14.90;99.90;;;;;;5094397;28;20036;-62
2023/05/25 03:29:53;;;;;;;6.78;2.88;;;14.80;99.90;;;;;;5093465;28;20039;-62
2023/05/25 03:32:19;;;;;;;6.15;2.80;;;14.70;99.90;;;;;;5093707;28;20119;-63
2023/05/25 03:34:44;;;;;;;6.93;2.78;;;14.70;99.90;;;;;;5094798;28;20066;-62
2023/05/25 03:37:10;;;;;;;6.32;2.75;;;14.70;99.90;;;;;;5094640;28;20044;-62
2023/05/25 03:39:36;;;;;;;4.32;2.72;;;14.70;99.90;;;;;;5094426;28;20035;-62
2023/05/25 03:42:02;;;;;;;6.03;2.88;;;14.80;99.90;;;;;;5094724;28;20032;-62
2023/05/25 03:44:28;;;;;;;5.57;2.50;;;14.70;99.90;;;;;;5094538;28;20092;-62
2023/05/25 03:46:53;;;;;;;5.10;2.67;;;14.70;99.90;;;;;;5094414;28;20502;-62
2023/05/25 03:49:19;;;;;;;6.22;2.80;;;14.60;99.90;;;;;;5094862;28;20031;-62
2023/05/25 03:51:45;;;;;;;9.45;3.30;;;14.70;99.90;;;;;;5094320;28;20028;-62
2023/05/25 03:54:10;;;;;;;6.95;2.95;;;14.70;99.90;;;;;;5094279;28;20498;-62
2023/05/25 03:56:36;;;;;;;9.25;2.90;;;14.60;99.90;;;;;;5094415;28;20537;-62
2023/05/25 03:59:02;;;;;;;5.07;2.90;;;14.60;99.90;;;;;;5094076;28;20021;-62
2023/05/25 04:01:28;;;;;;;6.55;2.72;;;14.70;99.90;;;;;;5094217;28;20060;-62
2023/05/25 04:03:55;;;;;;;4.70;2.88;;;14.60;99.90;;;;;;5094139;28;20398;-62
2023/05/25 04:06:24;;;;;;;4.60;2.72;;;14.60;99.90;;;;;;5094513;28;20474;-62
2023/05/25 04:08:52;;;;;;;6.38;2.70;;;14.60;99.90;;;;;;5094081;28;20028;-62
2023/05/25 04:11:19;;;;;;;6.22;2.97;;;14.60;99.90;;;;;;5093574;28;20039;-62
2023/05/25 04:13:45;;;;;;;5.05;3.03;;;14.50;99.90;;;;;;5094043;28;20039;-62
2023/05/25 04:16:11;;;;;;;6.35;2.72;;;14.50;99.90;;;;;;5094034;28;20024;-62
2023/05/25 04:18:37;;;;;;;6.03;3.00;;;14.50;99.90;;;;;;5093202;28;20051;-62
2023/05/25 04:21:03;;;;;;;5.72;2.88;;;14.50;99.90;;;;;;5093809;28;20071;-62
2023/05/25 04:23:29;;;;;;;5.68;2.67;;;14.50;99.90;;;;;;5093781;28;20024;-62
2023/05/25 04:25:56;;;;;;;5.88;2.80;;;14.40;99.90;;;;;;5093546;28;20028;-62
2023/05/25 04:28:22;;;;;;;5.28;2.72;;;14.40;99.90;;;;;;5093618;28;20028;-62
2023/05/25 04:30:47;;;;;;;6.65;3.00;;;14.50;99.90;;;;;;5093492;28;20036;-62
2023/05/25 04:33:13;;;;;;;7.07;3.17;;;14.50;99.90;;;;;;5093863;28;20028;-62
2023/05/25 04:35:39;;;;;;;5.80;3.13;;;14.40;99.90;;;;;;5093373;28;20047;-62
2023/05/25 04:38:06;;;;;;;7.47;3.08;;;14.50;99.90;;;;;;5093514;28;20028;-63
2023/05/25 04:40:34;;;;;;;7.07;2.75;;;14.40;99.90;;;;;;5094009;28;20137;-62
2023/05/25 04:43:00;;;;;;;5.13;2.95;;;14.40;99.90;;;;;;5093454;28;20406;-62
2023/05/25 04:45:26;;;;;;;5.72;3.00;;;14.40;99.90;;;;;;5093439;28;20031;-62
2023/05/25 04:47:52;;;;;;;5.45;3.17;;;14.40;99.90;;;;;;5093271;28;20027;-62
2023/05/25 04:50:18;;;;;;;4.28;2.80;;;14.50;99.90;;;;;;5093462;28;20028;-62
2023/05/25 04:52:43;;;;;;;7.20;3.30;;;14.40;99.90;;;;;;5092963;28;20024;-62
2023/05/25 04:55:09;;;;;;;6.90;3.17;;;14.40;99.90;;;;;;5093078;28;20028;-62
2023/05/25 04:57:35;;;;;;;8.00;3.53;;;14.40;99.90;;;;;;5093098;28;20095;-62
2023/05/25 05:00:00;;;;;;;6.88;3.10;;;14.30;99.90;;;;;;5093143;28;20056;-62
2023/05/25 05:02:26;;;;;;;7.28;2.95;;;14.30;99.90;;;;;;5092892;28;20131;-62
2023/05/25 05:04:52;;;;;;;4.93;3.20;;;14.30;99.90;;;;;;5092814;28;20024;-62
2023/05/25 05:07:20;;;;;;;6.03;2.97;;;14.30;99.90;;;;;;5093031;28;20513;-62
2023/05/25 05:09:45;;;;;;;6.88;3.35;;;14.30;99.90;;;;;;5091458;28;20073;-62
2023/05/25 05:12:11;;;;;;;6.38;3.45;;;14.40;99.90;;;;;;5092709;28;20285;-62
2023/05/25 05:14:37;;;;;;;5.45;3.30;;;14.30;99.90;;;;;;5093060;28;20052;-62
2023/05/25 05:17:03;;;;;;;5.53;3.22;;;14.40;99.90;;;;;;5092764;28;20024;-62
2023/05/25 05:19:28;;;;;;;7.20;3.58;;;14.40;99.90;;;;;;5092512;28;20065;-62
2023/05/25 05:21:55;;;;;;;8.02;3.30;;;14.40;99.90;;;;;;5092205;28;20016;-62
2023/05/25 05:24:20;;;;;;;8.32;3.20;;;14.40;99.90;;;;;;5092652;28;20073;-62
2023/05/25 05:26:46;;;;;;;6.15;3.40;;;14.40;99.90;;;;;;5091796;28;20116;-62
2023/05/25 05:29:12;;;;;;;7.13;3.33;;;14.40;99.90;;;;;;5092274;28;20032;-61
2023/05/25 05:31:37;;;;;;;6.95;3.25;;;14.40;99.90;;;;;;5092296;28;20121;-62
2023/05/25 05:34:03;;;;;;;6.45;3.60;;;14.40;99.90;;;;;;5092312;28;20028;-62
2023/05/25 05:36:29;;;;;;;6.38;3.10;;;14.50;99.90;;;;;;5092257;28;20682;-62
2023/05/25 05:38:54;;;;;;;8.60;4.00;;;14.40;99.90;;;;;;5092593;28;20389;-62
2023/05/25 05:41:20;;;;;;;8.88;3.70;;;14.40;99.90;;;;;;5092369;28;20522;-62
2023/05/25 05:43:46;;;;;;;7.30;3.60;;;14.50;99.90;;;;;;5092665;28;20441;-62
2023/05/25 05:46:13;;;;;;;5.60;3.40;;;14.50;99.90;;;;;;5092060;28;20055;-62
2023/05/25 05:48:39;;;;;;;7.25;3.80;;;14.50;99.90;;;;;;5092161;28;20023;-62
2023/05/25 05:51:05;;;;;;;6.75;3.65;;;14.50;99.90;;;;;;5091643;28;20031;-62
2023/05/25 05:53:31;;;;;;;6.95;3.47;;;14.50;99.90;;;;;;5092014;28;20132;-62
2023/05/25 05:55:58;;;;;;;8.05;3.65;;;14.50;99.90;;;;;;5092543;28;20032;-62
2023/05/25 05:58:28;;;;;;;6.80;3.40;;;14.40;99.90;;;;;;5091861;28;20482;-62
2023/05/25 06:00:55;;;;;;;7.55;3.50;;;14.50;99.90;;;;;;5091993;28;20031;-62
2023/05/25 06:03:22;;;;;;;6.15;3.55;;;14.50;99.90;;;;;;5092045;28;20032;-62
2023/05/25 06:05:48;;;;;;;7.20;3.80;;;14.50;99.90;;;;;;5091460;28;20119;-62
2023/05/25 06:08:14;;;;;;;9.93;3.75;;;14.50;99.90;;;;;;5091705;28;20114;-62
2023/05/25 06:10:41;;;;;;;6.03;3.58;;;14.60;99.90;;;;;;5091923;28;20030;-62
2023/05/25 06:13:06;;;;;;;8.13;3.72;;;14.60;99.90;;;;;;5091532;28;20123;-62
2023/05/25 06:15:32;;;;;;;7.65;3.85;;;14.60;99.90;;;;;;5091653;28;20134;-62
2023/05/25 06:17:58;;;;;;;9.35;3.78;;;14.60;99.90;;;;;;5091528;28;20032;-62
2023/05/25 06:20:24;;;;;;;9.85;3.70;;;14.70;99.90;;;;;;5091579;28;20028;-62
2023/05/25 06:22:49;;;;;;;10.35;4.18;;;14.80;99.90;;;;;;5091658;28;20084;-62
2023/05/25 06:25:15;;;;;;;11.20;3.53;;;14.80;99.90;;;;;;5090360;28;20027;-62
2023/05/25 06:27:41;;;;;;;8.18;3.80;;;14.80;99.90;;;;;;5091518;28;20505;-62
2023/05/25 06:30:07;;;;;;;8.18;3.65;;;14.70;99.90;;;;;;5091309;28;20077;-62
2023/05/25 06:32:33;;;;;;;8.00;3.55;;;14.80;99.90;;;;;;5091681;28;20036;-62
2023/05/25 06:34:59;;;;;;;7.13;3.83;;;14.90;99.90;;;;;;5090947;28;20106;-63
2023/05/25 06:37:26;;;;;;;7.25;4.03;;;14.90;99.90;;;;;;5091324;28;20620;-62
2023/05/25 06:39:51;;;;;;;11.00;3.80;;;14.90;99.90;;;;;;5091538;28;20103;-62
2023/05/25 06:42:17;;;;;;;9.45;3.78;;;14.90;99.90;;;;;;5090915;28;20110;-62
2023/05/25 06:44:43;;;;;;;5.95;3.70;;;15.00;99.90;;;;;;5091467;28;20395;-62
2023/05/25 06:47:09;;;;;;;11.30;4.25;;;15.00;99.90;;;;;;5091451;28;20028;-62
2023/05/25 06:49:34;;;;;;;8.27;3.97;;;15.10;99.90;;;;;;5090984;28;20039;-62
2023/05/25 06:52:00;;;;;;;6.28;3.45;;;15.10;99.90;;;;;;5091269;28;20031;-62
2023/05/25 06:54:26;;;;;;;8.20;4.00;;;15.10;99.90;;;;;;5091136;28;20040;-62
2023/05/25 06:56:52;;;;;;;7.65;3.67;;;15.20;99.90;;;;;;5091215;28;20454;-62
2023/05/25 06:59:18;;;;;;;9.52;4.05;;;15.20;99.90;;;;;;5091620;28;20505;-62
2023/05/25 07:01:46;;;;;;;10.32;3.88;;;15.20;99.90;;;;;;5091050;28;20024;-62
2023/05/25 07:04:12;;;;;;;6.55;3.80;;;15.30;99.90;;;;;;5090727;28;20030;-62
2023/05/25 07:06:37;;;;;;;8.40;3.97;;;15.40;99.90;;;;;;5091374;28;20110;-62
2023/05/25 07:09:03;;;;;;;11.50;4.15;;;15.40;99.90;;;;;;5090949;28;20028;-62
2023/05/25 07:11:29;;;;;;;8.60;4.07;;;15.50;99.90;;;;;;5091316;28;20093;-62
2023/05/25 07:13:55;;;;;;;10.20;4.15;;;15.50;99.90;;;;;;5091072;28;20099;-63
2023/05/25 07:16:20;;;;;;;7.35;3.72;;;15.60;99.90;;;;;;5091037;28;20114;-62
2023/05/25 07:18:46;;;;;;;7.93;3.97;;;15.70;99.90;;;;;;5091385;28;20024;-62
2023/05/25 07:21:12;;;;;;;7.95;3.80;;;15.80;99.90;;;;;;5091048;28;20081;-62
2023/05/25 07:23:39;;;;;;;8.43;3.65;;;15.80;99.90;;;;;;5091021;28;20081;-62
2023/05/25 07:26:05;;;;;;;12.90;3.85;;;15.90;99.90;;;;;;5090888;28;20500;-62
2023/05/25 07:28:31;;;;;;;9.48;4.13;;;16.00;99.90;;;;;;5090978;28;20016;-62
2023/05/25 07:30:57;;;;;;;11.10;4.57;;;16.00;99.90;;;;;;5090589;28;20024;-62
2023/05/25 07:33:22;;;;;;;9.70;3.88;;;16.00;99.90;;;;;;5090637;28;20526;-62
2023/05/25 07:35:48;;;;;;;6.50;3.88;;;16.10;99.90;;;;;;5090855;28;20619;-62
2023/05/25 07:38:13;;;;;;;8.20;3.63;;;16.20;99.90;;;;;;5091114;28;20402;-62
2023/05/25 07:40:39;;;;;;;9.07;3.83;;;16.20;99.90;;;;;;5090842;28;20052;-62
2023/05/25 07:43:05;;;;;;;7.82;3.55;;;16.30;99.90;;;;;;5090734;28;20538;-62
2023/05/25 07:45:30;;;;;;;8.60;4.20;;;16.40;99.90;;;;;;5091012;28;20024;-62
2023/05/25 07:47:56;;;;;;;5.63;3.45;;;16.40;99.90;;;;;;5090378;28;20505;-63
2023/05/25 07:50:22;;;;;;;7.78;3.75;;;16.50;99.90;;;;;;5090877;28;20024;-62
2023/05/25 07:52:48;;;;;;;8.48;3.70;;;16.50;99.90;;;;;;5093043;28;20528;-62
2023/05/25 07:55:14;;;;;;;10.65;3.60;;;16.70;99.90;;;;;;5094442;28;20025;-62
2023/05/25 07:57:40;;;;;;;11.75;4.18;;;16.70;99.90;;;;;;5094693;28;20031;-62
2023/05/25 08:00:08;;;;;;;8.10;3.63;;;16.80;99.90;;;;;;5094192;28;20525;-62
2023/05/25 08:02:33;;;;;;;8.88;3.63;;;16.90;99.90;;;;;;5093818;28;20507;-62
2023/05/25 08:05:04;;;;;;;11.23;3.80;;;16.90;99.90;;;;;;5094765;28;20053;-61
2023/05/25 08:07:30;;;;;;;12.73;4.35;;;17.00;99.90;;;;;;5094084;28;20028;-62
2023/05/25 08:09:56;;;;;;;12.25;4.40;;;17.00;99.90;;;;;;5094098;28;20486;-62
2023/05/25 08:12:21;;;;;;;16.30;5.05;;;17.00;99.90;;;;;;5093838;28;20040;-62
2023/05/25 08:14:47;;;;;;;18.98;5.90;;;17.10;99.90;;;;;;5094313;28;20150;-62
2023/05/25 08:17:13;;;;;;;13.73;4.50;;;17.20;99.90;;;;;;5092435;28;20039;-62
2023/05/25 08:19:38;;;;;;;12.60;4.10;;;17.30;99.90;;;;;;5093855;28;20024;-62
2023/05/25 08:22:04;;;;;;;13.85;4.93;;;17.30;99.90;;;;;;5093914;28;20024;-62
2023/05/25 08:24:30;;;;;;;9.77;4.22;;;17.30;99.90;;;;;;5093692;28;20104;-62
2023/05/25 08:26:56;;;;;;;8.77;4.10;;;17.40;99.90;;;;;;5093857;28;20028;-63
2023/05/25 08:29:21;;;;;;;9.90;3.83;;;17.50;99.90;;;;;;5093763;28;20494;-62
2023/05/25 08:31:48;;;;;;;10.32;3.50;;;17.50;99.90;;;;;;5093134;28;20040;-63
2023/05/25 08:34:15;;;;;;;6.47;3.67;;;17.50;99.90;;;;;;5094067;28;20031;-62
2023/05/25 08:36:41;;;;;;;9.50;4.13;;;17.60;99.90;;;;;;5093452;28;20090;-62
2023/05/25 08:39:07;;;;;;;10.95;4.32;;;17.60;99.90;;;;;;5093954;28;20036;-62
2023/05/25 08:41:35;;;;;;;10.98;3.83;;;17.70;99.90;;;;;;5093495;28;20024;-63
2023/05/25 08:44:05;;;;;;;7.75;3.80;;;17.80;99.90;;;;;;5093738;28;20024;-62
2023/05/25 08:46:31;;;;;;;10.05;4.40;;;17.90;99.90;;;;;;5093298;28;20051;-62
2023/05/25 08:49:13;;;;;;;9.85;4.00;;;17.90;99.90;;;;;;5093333;28;20031;-62
2023/05/25 08:51:51;;;;;;;9.65;3.60;;;18.00;99.90;;;;;;5093252;28;20024;-62
2023/05/25 08:54:19;;;;;;;6.55;3.55;;;18.00;99.90;;;;;;5093149;28;20044;-62
2023/05/25 08:57:01;;;;;;;9.38;4.13;;;18.10;99.90;;;;;;5093047;28;20027;-62
2023/05/25 08:59:50;;;;;;;12.40;4.07;;;18.10;99.90;;;;;;5092812;28;20028;-62
2023/05/25 09:02:58;;;;;;;9.50;4.03;;;18.20;99.90;;;;;;5093260;28;20032;-63
2023/05/25 09:05:24;;;;;;;11.85;3.88;;;18.20;99.90;;;;;;5093162;28;20020;-62
2023/05/25 09:07:53;;;;;;;9.25;4.05;;;18.30;99.90;;;;;;5092948;28;20027;-62
2023/05/25 09:10:19;;;;;;;9.45;4.20;;;18.20;99.90;;;;;;5093034;28;20111;-62
2023/05/25 09:12:46;;;;;;;10.73;4.20;;;18.30;99.90;;;;;;5092773;28;20043;-62
2023/05/25 09:15:12;;;;;;;9.40;4.00;;;18.40;99.90;;;;;;5092940;28;20099;-62
2023/05/25 09:17:40;;;;;;;13.05;4.55;;;18.40;99.90;;;;;;5092734;28;20107;-62
2023/05/25 09:20:15;;;;;;;12.82;4.65;;;18.60;99.90;;;;;;5092709;28;20138;-62
2023/05/25 09:22:41;;;;;;;17.58;5.57;;;18.70;99.90;;;;;;5092923;28;20047;-62
2023/05/25 09:25:09;;;;;;;12.80;4.50;;;18.70;99.90;;;;;;5092671;28;20024;-63
2023/05/25 09:27:38;;;;;;;12.65;4.40;;;18.80;99.90;;;;;;5092328;28;20513;-63
2023/05/25 09:30:05;;;;;;;11.63;4.68;;;18.80;99.90;;;;;;5092171;28;20089;-63
2023/05/25 09:32:31;;;;;;;11.75;4.63;;;18.80;99.90;;;;;;5092323;28;20060;-62
2023/05/25 09:35:07;;;;;;;10.15;4.28;;;18.80;99.90;;;;;;5092257;28;20097;-62
2023/05/25 09:37:33;;;;;;;10.73;4.60;;;18.90;99.90;;;;;;5092263;28;20476;-62
2023/05/25 09:39:58;;;;;;;10.27;4.38;;;18.90;99.90;;;;;;5092470;28;20103;-63
2023/05/25 09:42:24;;;;;;;9.30;4.25;;;19.00;99.90;;;;;;5092358;28;20056;-62
2023/05/25 09:44:50;;;;;;;8.57;4.13;;;19.10;99.90;;;;;;5091970;28;20020;-62
2023/05/25 09:47:17;;;;;;;10.43;4.28;;;19.20;99.90;;;;;;5092250;28;20024;-63
2023/05/25 09:49:46;;;;;;;8.98;4.30;;;19.20;99.90;;;;;;5092508;28;20099;-62
2023/05/25 09:52:12;;;;;;;13.63;4.78;;;19.30;99.90;;;;;;5091948;28;20047;-62
2023/05/25 09:54:38;;;;;;;10.27;4.47;;;19.20;99.90;;;;;;5092068;28;20032;-62
2023/05/25 09:57:05;;;;;;;13.68;4.50;;;19.30;99.90;;;;;;5092136;28;20089;-62
2023/05/25 09:59:31;;;;;;;11.10;4.47;;;19.30;99.90;;;;;;5092355;28;20016;-62
2023/05/25 10:01:58;;;;;;;9.50;4.43;;;19.30;99.90;;;;;;5092259;28;20390;-62
2023/05/25 10:04:23;;;;;;;10.15;4.45;;;19.10;99.90;;;;;;5091814;28;20099;-62
2023/05/25 10:06:51;;;;;;;9.88;4.55;;;19.20;99.90;;;;;;5091760;28;20111;-62
2023/05/25 10:09:18;;;;;;;13.20;5.28;;;19.40;99.90;;;;;;5091729;28;20034;-62
2023/05/25 10:11:45;;;;;;;15.38;5.38;;;19.40;99.90;;;;;;5091419;28;20585;-62
2023/05/25 10:14:18;;;;;;;8.57;4.63;;;19.50;99.90;;;;;;5091685;28;20020;-62
2023/05/25 10:16:49;;;;;;;8.57;4.78;;;19.50;99.90;;;;;;5090949;28;20020;-62
2023/05/25 10:19:45;;;;;;;9.48;4.88;;;19.60;99.90;;;;;;5091703;28;20513;-62
2023/05/25 10:22:40;;;;;;;10.23;4.90;;;19.70;99.90;;;;;;5091983;28;20016;-62
2023/05/25 10:25:24;;;;;;;10.55;4.80;;;19.70;99.90;;;;;;5091768;28;20078;-62
2023/05/25 10:28:15;;;;;;;8.85;4.60;;;19.80;99.90;;;;;;5091147;28;20095;-62
2023/05/25 10:30:42;;;;;;;10.00;4.25;;;19.90;99.90;;;;;;5091435;28;20491;-62
2023/05/25 10:33:09;;;;;;;6.25;3.70;;;20.00;99.90;;;;;;5090150;28;20043;-62
2023/05/25 10:35:38;;;;;;;8.68;4.13;;;20.20;99.90;;;;;;5091199;28;20040;-62
2023/05/25 10:38:05;;;;;;;10.02;4.43;;;20.10;99.90;;;;;;5091336;28;20081;-63
2023/05/25 10:40:33;;;;;;;11.38;4.05;;;20.30;99.90;;;;;;5091288;28;20105;-62
2023/05/25 10:42:59;;;;;;;11.13;4.05;;;20.40;99.90;;;;;;5091020;28;20470;-62
2023/05/25 10:45:25;;;;;;;8.77;3.85;;;20.40;99.90;;;;;;5091940;28;20020;-62
2023/05/25 10:47:51;;;;;;;9.43;3.78;;;20.40;99.90;;;;;;5091154;28;20487;-62
2023/05/25 10:50:23;;;;;;;11.10;3.90;;;20.20;99.90;;;;;;5091893;28;20043;-62
2023/05/25 10:53:01;;;;;;;13.02;3.70;;;20.10;99.90;;;;;;5091101;28;20028;-62
2023/05/25 10:55:30;;;;;;;9.73;3.70;;;19.90;99.90;;;;;;5091087;28;20024;-62
2023/05/25 10:58:11;;;;;;;10.85;4.32;;;19.90;99.90;;;;;;5091002;28;20042;-62
2023/05/25 11:00:37;;;;;;;7.28;3.70;;;20.00;99.90;;;;;;5091204;28;20024;-62
2023/05/25 11:03:03;;;;;;;11.20;3.83;;;19.90;99.90;;;;;;5091438;28;20052;-62
2023/05/25 11:05:31;;;;;;;8.35;3.45;;;19.90;99.90;;;;;;5091668;28;20074;-62
2023/05/25 11:07:58;;;;;;;6.85;3.30;;;19.80;99.90;;;;;;5090917;28;20043;-62
2023/05/25 11:10:48;;;;;;;7.50;3.65;;;19.80;99.90;;;;;;5090792;28;20062;-62
2023/05/25 11:13:19;;;;;;;10.73;3.58;;;19.70;99.90;;;;;;5091026;28;20498;-62
2023/05/25 11:16:06;;;;;;;9.98;3.88;;;19.40;99.90;;;;;;5091185;28;20482;-62
2023/05/25 11:18:40;;;;;;;9.52;3.70;;;19.20;99.90;;;;;;5090984;28;20028;-62
2023/05/25 11:21:21;;;;;;;7.50;3.75;;;19.10;99.90;;;;;;5091121;28;20066;-62
2023/05/25 11:24:01;;;;;;;10.43;3.85;;;19.10;99.90;;;;;;5091262;28;20035;-62
2023/05/25 11:26:29;;;;;;;8.98;3.80;;;19.00;99.90;;;;;;5090950;28;20099;-62
2023/05/25 11:28:57;;;;;;;8.00;3.72;;;18.90;99.90;;;;;;5094802;28;20047;-63
2023/05/25 11:31:32;;;;;;;12.07;3.92;;;18.90;99.90;;;;;;5094910;28;20035;-62
2023/05/25 11:34:00;;;;;;;11.13;3.92;;;18.80;99.90;;;;;;5094950;28;20060;-62
2023/05/25 11:36:33;;;;;;;16.52;3.95;;;18.80;99.90;;;;;;5094427;28;20051;-62
2023/05/25 11:39:02;;;;;;;;;;;18.80;99.90;;;;;;5094918;28;20020;-63
2023/05/25 11:41:28;;;;;;;7.10;3.47;;;19.10;99.90;;;;;;5095037;28;19931;-62
2023/05/25 11:43:55;;;;;;;7.25;3.47;;;19.60;99.90;;;;;;5094701;28;20058;-62
2023/05/25 11:46:21;;;;;;;4.70;3.15;;;19.90;99.90;;;;;;5094571;28;20538;-62
2023/05/25 11:48:51;;;;;;;9.13;3.63;;;20.00;99.90;;;;;;5095007;28;20119;-62
2023/05/25 11:51:23;;;;;;;5.70;3.17;;;20.00;99.90;;;;;;5094467;28;20032;-62
2023/05/25 11:53:48;;;;;;;6.03;3.25;;;19.90;99.90;;;;;;5094305;28;20024;-62
2023/05/25 11:56:16;;;;;;;6.45;2.95;;;20.20;99.90;;;;;;5094821;28;20032;-62
2023/05/25 11:58:46;;;;;;;6.68;2.95;;;20.30;99.90;;;;;;5094641;28;20103;-62
2023/05/25 12:01:19;;;;;;;7.00;3.17;;;20.30;99.90;;;;;;5094330;28;20083;-62
2023/05/25 12:03:52;;;;;;;5.97;3.10;;;20.50;99.90;;;;;;5094279;28;20069;-62
2023/05/25 12:06:27;;;;;;;5.43;3.25;;;20.60;99.90;;;;;;5089133;28;20032;-63
2023/05/25 12:08:54;;;;;;;9.68;3.40;;;20.90;99.90;;;;;;5093456;28;20823;-62
2023/05/25 12:11:39;;;;;;;8.10;3.08;;;21.00;99.90;;;;;;5093965;28;20483;-62
2023/05/25 12:14:06;;;;;;;6.18;2.90;;;21.00;99.90;;;;;;5094472;28;20461;-62
2023/05/25 12:16:37;;;;;;;6.75;2.85;;;21.10;99.90;;;;;;5093605;28;20440;-62
2023/05/25 12:19:04;;;;;;;5.80;2.78;;;21.20;99.90;;;;;;5092974;28;20035;-63
2023/05/25 12:21:31;;;;;;;5.20;3.00;;;21.50;99.90;;;;;;5093745;28;20406;-62
2023/05/25 12:23:58;;;;;;;6.97;2.58;;;21.70;99.90;;;;;;5073267;28;20031;-61
2023/05/25 12:26:25;;;;;;;4.30;2.53;;;21.60;99.90;;;;;;5073332;28;20100;-63
2023/05/25 12:29:04;;;;;;;5.38;2.80;;;21.60;99.90;;;;;;5073228;28;20028;-62
2023/05/25 12:31:32;;;;;;;4.75;2.40;;;21.90;99.90;;;;;;5088223;28;20032;-63
2023/05/25 12:34:06;;;;;;;5.53;2.70;;;21.90;99.90;;;;;;5075315;28;20032;-63
2023/05/25 12:36:55;;;;;;;4.40;2.60;;;21.80;99.90;;;;;;5072990;28;20056;-63
2023/05/25 12:39:30;;;;;;;6.07;3.10;;;22.20;99.90;;;;;;5072213;28;20027;-63
2023/05/25 12:42:01;;;;;;;4.90;2.78;;;22.30;99.90;;;;;;5073811;28;20028;-63
2023/05/25 12:44:34;;;;;;;8.65;3.00;;;22.40;99.90;;;;;;5073318;28;20033;-63
2023/05/25 12:47:18;;;;;;;5.95;3.10;;;22.40;99.90;;;;;;5073048;28;20451;-63
2023/05/25 12:49:51;;;;;;;3.30;2.63;;;22.00;99.90;;;;;;5073057;28;20090;-63